createdAt,value
2023-01-19T00:00:35.614Z,7.95
2023-01-19T00:03:04.533Z,9.73
2023-01-19T00:05:33.504Z,11.45
2023-01-19T00:08:01.287Z,9.63
2023-01-19T00:10:28.951Z,11.10
2023-01-19T00:12:56.970Z,9.18
2023-01-19T00:15:24.938Z,10.93
2023-01-19T00:17:53.001Z,10.27
2023-01-19T00:20:20.460Z,10.13
2023-01-19T00:22:49.376Z,9.60
2023-01-19T00:25:17.242Z,9.27
2023-01-19T00:27:44.725Z,10.40
2023-01-19T00:30:13.043Z,11.25
2023-01-19T00:32:40.579Z,9.57
2023-01-19T00:35:08.713Z,8.25
2023-01-19T00:37:36.418Z,8.57
2023-01-19T00:40:06.746Z,10.02
2023-01-19T00:42:34.289Z,9.35
2023-01-19T00:45:02.059Z,10.48
2023-01-19T00:47:30.131Z,10.65
2023-01-19T00:49:57.650Z,10.07
2023-01-19T00:52:25.252Z,9.90
2023-01-19T00:54:52.726Z,10.25
2023-01-19T00:57:21.692Z,11.63
2023-01-19T00:59:49.251Z,9.73
2023-01-19T01:02:16.900Z,9.57
2023-01-19T01:04:44.466Z,8.73
2023-01-19T01:07:12.428Z,8.70
2023-01-19T01:09:39.955Z,10.27
2023-01-19T01:12:08.175Z,10.73
2023-01-19T01:14:37.091Z,11.68
2023-01-19T01:17:04.888Z,12.45
2023-01-19T01:19:32.356Z,10.75
2023-01-19T01:21:59.801Z,10.38
2023-01-19T01:24:27.219Z,12.02
2023-01-19T01:26:54.698Z,9.00
2023-01-19T01:29:22.343Z,8.80
2023-01-19T01:31:51.276Z,12.88
2023-01-19T01:34:18.932Z,11.50
2023-01-19T01:36:46.432Z,10.93
2023-01-19T01:39:14.392Z,11.95
2023-01-19T01:41:41.822Z,10.77
2023-01-19T01:44:45.183Z,13.13
2023-01-19T01:47:14.926Z,13.63
2023-01-19T01:49:42.760Z,9.88
2023-01-19T01:52:11.480Z,11.15
2023-01-19T01:54:39.195Z,12.60
2023-01-19T01:57:10.228Z,11.38
2023-01-19T01:59:43.471Z,10.95
2023-01-19T02:02:16.212Z,12.55
2023-01-19T02:04:47.764Z,14.93
2023-01-19T02:07:23.799Z,11.88
2023-01-19T02:09:52.131Z,13.38
2023-01-19T02:12:19.797Z,10.55
2023-01-19T02:14:47.501Z,11.02
2023-01-19T02:17:16.590Z,11.38
2023-01-19T02:19:44.265Z,11.23
2023-01-19T02:22:16.598Z,10.98
2023-01-19T02:24:45.812Z,11.98
2023-01-19T02:27:13.579Z,10.35
2023-01-19T02:29:41.614Z,10.90
2023-01-19T02:32:10.410Z,10.50
2023-01-19T02:34:38.148Z,11.05
2023-01-19T02:37:11.079Z,12.20
2023-01-19T02:39:42.849Z,9.70
2023-01-19T02:42:15.765Z,10.27
2023-01-19T02:44:47.055Z,8.77
2023-01-19T02:47:15.315Z,11.27
2023-01-19T02:49:42.930Z,13.25
2023-01-19T02:52:16.594Z,12.32
2023-01-19T02:54:58.299Z,8.88
2023-01-19T02:57:39.490Z,12.02
2023-01-19T03:00:21.383Z,11.73
2023-01-19T03:03:02.067Z,10.55
2023-01-19T03:05:41.393Z,11.23
2023-01-19T03:08:16.887Z,10.13
2023-01-19T03:10:53.792Z,10.45
2023-01-19T03:13:30.046Z,11.35
2023-01-19T03:16:00.426Z,8.75
2023-01-19T03:18:32.432Z,12.30
2023-01-19T03:21:04.459Z,9.55
2023-01-19T03:23:35.492Z,9.02
2023-01-19T03:26:04.864Z,10.32
2023-01-19T03:28:36.406Z,11.40
2023-01-19T03:31:08.266Z,10.52
2023-01-19T03:33:41.596Z,9.40
2023-01-19T03:36:13.145Z,9.05
2023-01-19T03:38:43.418Z,9.07
2023-01-19T03:41:13.743Z,10.10
2023-01-19T03:43:44.703Z,10.65
2023-01-19T03:46:13.071Z,11.25
2023-01-19T03:48:40.709Z,10.57
2023-01-19T03:51:10.042Z,11.77
2023-01-19T03:53:37.794Z,9.23
2023-01-19T03:56:06.240Z,7.32
2023-01-19T03:58:33.800Z,9.23
2023-01-19T04:01:03.096Z,12.70
2023-01-19T04:03:30.630Z,11.10
2023-01-19T04:05:58.148Z,10.98
2023-01-19T04:08:25.575Z,11.50
2023-01-19T04:10:53.185Z,13.05
2023-01-19T04:13:20.681Z,10.00
2023-01-19T04:15:48.152Z,12.25
2023-01-19T04:18:17.096Z,11.10
2023-01-19T04:20:44.522Z,12.93
2023-01-19T04:23:12.112Z,10.75
2023-01-19T04:25:39.719Z,12.73
2023-01-19T04:28:07.244Z,13.77
2023-01-19T04:30:34.764Z,15.07
2023-01-19T04:33:02.517Z,18.77
2023-01-19T04:35:31.850Z,17.00
2023-01-19T04:37:59.317Z,20.13
2023-01-19T04:40:26.907Z,25.13
2023-01-19T04:42:54.427Z,24.25
2023-01-19T04:45:22.398Z,15.70
2023-01-19T04:47:51.119Z,20.50
2023-01-19T04:50:19.154Z,20.40
2023-01-19T04:52:48.228Z,19.17
2023-01-19T04:55:16.751Z,22.08
2023-01-19T04:57:44.257Z,18.27
2023-01-19T05:00:13.203Z,22.92
2023-01-19T05:02:40.713Z,21.05
2023-01-19T05:05:08.881Z,26.70
2023-01-19T05:07:36.537Z,26.35
2023-01-19T05:10:07.068Z,22.27
2023-01-19T05:12:34.642Z,20.38
2023-01-19T05:15:02.244Z,23.85
2023-01-19T05:17:29.745Z,28.40
2023-01-19T05:19:57.171Z,21.15
2023-01-19T05:22:24.664Z,27.35
2023-01-19T05:24:52.184Z,25.30
2023-01-19T05:27:21.199Z,33.03
2023-01-19T05:29:48.644Z,24.90
2023-01-19T05:32:16.089Z,29.55
2023-01-19T05:34:43.531Z,28.23
2023-01-19T05:37:10.991Z,24.85
2023-01-19T05:39:38.467Z,32.65
2023-01-19T05:42:06.207Z,24.05
2023-01-19T05:44:35.142Z,30.23
2023-01-19T05:47:02.613Z,32.83
2023-01-19T05:49:30.058Z,23.98
2023-01-19T05:51:57.704Z,22.23
2023-01-19T05:54:25.186Z,27.05
2023-01-19T05:56:52.717Z,26.40
2023-01-19T05:59:20.631Z,22.30
2023-01-19T06:01:49.612Z,24.77
2023-01-19T06:04:17.122Z,27.30
2023-01-19T06:06:44.536Z,22.70
2023-01-19T06:09:12.002Z,22.92
2023-01-19T06:11:39.458Z,27.75
2023-01-19T06:14:07.034Z,25.75
2023-01-19T06:16:34.645Z,25.92
2023-01-19T06:19:03.950Z,22.92
2023-01-19T06:21:31.599Z,24.27
2023-01-19T06:23:59.052Z,23.77
2023-01-19T06:26:26.505Z,26.85
2023-01-19T06:28:53.949Z,30.55
2023-01-19T06:31:21.572Z,25.67
2023-01-19T06:33:49.131Z,30.08
2023-01-19T06:36:18.032Z,23.50
2023-01-19T06:38:45.580Z,26.17
2023-01-19T06:41:13.082Z,24.98
2023-01-19T06:43:40.558Z,27.77
2023-01-19T06:46:08.226Z,24.15
2023-01-19T06:48:35.824Z,27.48
2023-01-19T06:51:03.263Z,24.55
2023-01-19T06:53:32.113Z,23.70
2023-01-19T06:56:00.368Z,29.63
2023-01-19T06:58:28.673Z,29.23
2023-01-19T07:00:56.301Z,26.10
2023-01-19T07:03:25.446Z,27.70
2023-01-19T07:05:53.942Z,27.15
2023-01-19T07:08:21.829Z,29.83
2023-01-19T07:11:26.922Z,29.48
2023-01-19T07:13:40.271Z,30.40
2023-01-19T07:16:10.485Z,30.35
2023-01-19T07:18:40.155Z,31.25
2023-01-19T07:21:08.083Z,31.75
2023-01-19T07:23:35.576Z,32.15
2023-01-19T07:26:04.647Z,34.05
2023-01-19T07:28:32.721Z,38.45
2023-01-19T07:31:00.342Z,35.13
2023-01-19T07:33:27.901Z,24.50
2023-01-19T07:35:55.655Z,27.48
2023-01-19T07:38:23.249Z,32.67
2023-01-19T07:40:51.361Z,33.20
2023-01-19T07:43:21.209Z,28.42
2023-01-19T07:45:49.253Z,30.80
2023-01-19T07:48:16.807Z,28.50
2023-01-19T07:50:44.307Z,34.05
2023-01-19T07:53:12.105Z,32.25
2023-01-19T07:55:40.240Z,32.65
2023-01-19T07:58:08.006Z,32.40
2023-01-19T08:00:38.364Z,26.10
2023-01-19T08:03:06.060Z,26.15
2023-01-19T08:05:33.841Z,37.33
2023-01-19T08:08:01.324Z,24.15
2023-01-19T08:10:29.476Z,32.70
2023-01-19T08:12:59.268Z,33.13
2023-01-19T08:15:28.377Z,36.05
2023-01-19T08:17:58.877Z,27.67
2023-01-19T08:20:27.259Z,29.52
2023-01-19T08:22:55.787Z,30.05
2023-01-19T08:25:24.303Z,29.15
2023-01-19T08:27:54.989Z,24.92
2023-01-19T08:30:22.563Z,31.08
2023-01-19T08:32:50.047Z,28.48
2023-01-19T08:35:19.463Z,25.95
2023-01-19T08:37:46.958Z,24.10
2023-01-19T08:40:14.662Z,26.50
2023-01-19T08:42:42.160Z,25.20
2023-01-19T08:45:10.404Z,24.38
2023-01-19T08:47:37.925Z,28.35
2023-01-19T08:50:06.096Z,25.67
2023-01-19T08:52:34.996Z,27.85
2023-01-19T08:55:02.437Z,23.80
2023-01-19T08:57:29.903Z,26.38
2023-01-19T08:59:57.341Z,24.67
2023-01-19T09:02:24.832Z,22.50
2023-01-19T09:04:52.346Z,23.73
2023-01-19T09:07:19.954Z,26.90
2023-01-19T09:09:48.955Z,24.38
2023-01-19T09:12:16.414Z,28.55
2023-01-19T09:14:43.893Z,28.73
2023-01-19T09:17:11.392Z,28.63
2023-01-19T09:19:38.855Z,25.08
2023-01-19T09:22:06.315Z,25.52
2023-01-19T09:24:33.763Z,22.02
2023-01-19T09:27:02.833Z,23.63
2023-01-19T09:29:30.425Z,25.50
2023-01-19T09:31:58.070Z,23.30
2023-01-19T09:34:25.514Z,24.55
2023-01-19T09:36:53.063Z,24.25
2023-01-19T09:39:20.960Z,21.40
2023-01-19T09:41:56.379Z,22.75
2023-01-19T09:44:29.735Z,23.33
2023-01-19T09:46:57.187Z,22.52
2023-01-19T09:49:31.570Z,19.73
2023-01-19T09:51:59.452Z,22.15
2023-01-19T09:54:35.303Z,23.88
2023-01-19T09:57:03.027Z,22.80
2023-01-19T09:59:33.946Z,24.77
2023-01-19T10:02:19.466Z,25.17
2023-01-19T10:04:59.348Z,24.05
2023-01-19T10:07:36.066Z,23.35
2023-01-19T10:10:16.728Z,28.67
2023-01-19T10:13:04.866Z,27.40
2023-01-19T10:15:46.900Z,23.30
2023-01-19T10:18:19.643Z,26.85
2023-01-19T10:20:50.817Z,25.42
2023-01-19T10:23:36.952Z,25.83
2023-01-19T10:26:09.435Z,27.48
2023-01-19T10:28:38.796Z,23.77
2023-01-19T10:31:08.698Z,25.48
2023-01-19T10:36:06.262Z,30.23
2023-01-19T10:38:35.364Z,23.23
2023-01-19T10:41:10.379Z,26.90
2023-01-19T10:43:40.260Z,26.00
2023-01-19T10:46:23.411Z,24.17
2023-01-19T10:48:53.541Z,26.75
2023-01-19T10:51:22.341Z,23.95
2023-01-19T10:53:59.301Z,26.00
2023-01-19T10:56:31.002Z,25.88
2023-01-19T10:59:01.394Z,26.27
2023-01-19T11:01:31.396Z,32.45
2023-01-19T11:03:58.965Z,19.88
2023-01-19T11:06:28.528Z,22.60
2023-01-19T11:09:16.654Z,24.70
2023-01-19T11:11:48.185Z,24.95
2023-01-19T11:14:19.603Z,23.58
2023-01-19T11:16:52.478Z,27.65
2023-01-19T11:19:27.730Z,24.55
2023-01-19T11:22:11.596Z,28.17
2023-01-19T11:24:44.160Z,24.73
2023-01-19T11:29:39.737Z,26.75
2023-01-19T11:32:21.045Z,27.45
2023-01-19T11:34:49.178Z,22.90
2023-01-19T11:37:29.379Z,26.67
2023-01-19T11:39:59.247Z,26.83
2023-01-19T11:42:30.407Z,29.80
2023-01-19T11:45:03.598Z,22.15
2023-01-19T11:47:38.484Z,27.17
2023-01-19T11:50:12.529Z,26.48
2023-01-19T11:52:45.286Z,27.50
2023-01-19T11:55:22.395Z,26.38
2023-01-19T11:57:54.292Z,27.83
2023-01-19T12:00:29.020Z,25.70
2023-01-19T12:03:05.400Z,23.25
2023-01-19T12:05:35.430Z,26.30
2023-01-19T12:08:07.345Z,25.73
2023-01-19T12:10:41.654Z,23.58
2023-01-19T12:13:20.902Z,27.05
2023-01-19T12:15:53.623Z,25.02
2023-01-19T12:18:28.737Z,26.98
2023-01-19T12:20:57.192Z,22.98
2023-01-19T12:23:40.086Z,25.50
2023-01-19T12:26:34.577Z,25.33
2023-01-19T12:29:08.263Z,23.48
2023-01-19T12:31:35.892Z,19.58
2023-01-19T12:34:38.637Z,25.85
2023-01-19T12:37:07.998Z,31.85
2023-01-19T12:39:47.564Z,22.75
2023-01-19T12:42:18.514Z,25.80
2023-01-19T12:44:48.338Z,25.65
2023-01-19T12:47:21.153Z,26.05
2023-01-19T12:49:53.301Z,27.60
2023-01-19T12:52:26.915Z,21.23
2023-01-19T12:55:00.155Z,23.35
2023-01-19T12:57:34.092Z,26.90
2023-01-19T13:00:07.647Z,26.15
2023-01-19T13:02:47.969Z,23.25
2023-01-19T13:05:25.731Z,23.55
2023-01-19T13:08:30.112Z,26.85
2023-01-19T13:11:19.875Z,26.02
2023-01-19T13:14:25.605Z,21.70
2023-01-19T13:17:01.013Z,23.13
2023-01-19T13:19:42.167Z,30.60
2023-01-19T13:23:03.582Z,28.13
2023-01-19T13:25:35.279Z,24.73
2023-01-19T13:28:09.324Z,26.55
2023-01-19T13:30:40.729Z,25.58
2023-01-19T13:33:18.276Z,26.67
2023-01-19T13:35:53.181Z,26.63
2023-01-19T13:38:22.898Z,22.08
2023-01-19T13:40:52.900Z,32.67
2023-01-19T13:43:25.588Z,26.05
2023-01-19T13:45:55.226Z,26.02
2023-01-19T13:50:59.472Z,25.48
2023-01-19T13:53:27.538Z,25.55
2023-01-19T13:56:18.869Z,21.30
2023-01-19T13:58:59.001Z,23.65
2023-01-19T14:01:29.076Z,22.45
2023-01-19T14:03:57.071Z,22.63
2023-01-19T14:06:33.855Z,26.20
2023-01-19T14:09:23.076Z,27.60
2023-01-19T14:12:08.604Z,25.43
2023-01-19T14:14:36.492Z,31.40
2023-01-19T14:17:04.772Z,20.83
2023-01-19T14:19:49.765Z,24.33
2023-01-19T14:22:18.062Z,19.90
2023-01-19T14:24:45.580Z,22.73
2023-01-19T14:27:23.216Z,18.20
2023-01-19T14:29:52.247Z,20.55
2023-01-19T14:32:22.016Z,23.58
2023-01-19T14:34:51.212Z,20.95
2023-01-19T14:37:21.753Z,16.17
2023-01-19T14:39:51.652Z,17.00
2023-01-19T14:42:25.531Z,17.25
2023-01-19T14:44:58.437Z,22.05
2023-01-19T14:47:29.011Z,16.13
2023-01-19T14:50:00.152Z,20.02
2023-01-19T14:52:31.639Z,16.38
2023-01-19T14:55:00.871Z,18.27
2023-01-19T14:57:29.736Z,16.45
2023-01-19T14:59:57.163Z,20.63
2023-01-19T15:02:24.751Z,17.23
2023-01-19T15:04:52.278Z,16.92
2023-01-19T15:07:20.291Z,16.40
2023-01-19T15:09:48.150Z,16.20
2023-01-19T15:12:17.677Z,15.48
2023-01-19T15:14:47.096Z,14.77
2023-01-19T15:17:20.815Z,15.50
2023-01-19T15:19:48.268Z,14.30
2023-01-19T15:22:15.681Z,12.77
2023-01-19T15:24:43.084Z,20.40
2023-01-19T15:27:11.667Z,15.88
2023-01-19T15:29:39.413Z,16.95
2023-01-19T15:32:12.794Z,14.40
2023-01-19T15:34:40.258Z,13.32
2023-01-19T15:37:07.883Z,14.25
2023-01-19T15:39:35.756Z,13.68
2023-01-19T15:42:03.363Z,16.95
2023-01-19T15:44:30.918Z,12.05
2023-01-19T15:46:58.363Z,13.88
2023-01-19T15:49:27.248Z,15.07
2023-01-19T15:51:54.804Z,12.45
2023-01-19T15:54:22.377Z,12.32
2023-01-19T15:56:49.814Z,16.80
2023-01-19T15:59:17.313Z,12.32
2023-01-19T16:01:44.948Z,14.43
2023-01-19T16:04:12.392Z,14.35
2023-01-19T16:06:41.358Z,13.60
2023-01-19T16:09:08.863Z,12.20
2023-01-19T16:11:36.391Z,15.77
2023-01-19T16:14:03.891Z,21.25
2023-01-19T16:16:31.902Z,14.40
2023-01-19T16:18:59.421Z,15.73
2023-01-19T16:21:27.496Z,12.52
2023-01-19T16:23:56.598Z,14.93
2023-01-19T16:26:27.755Z,12.13
2023-01-19T16:28:59.545Z,15.07
2023-01-19T16:31:27.952Z,16.15
2023-01-19T16:33:56.177Z,13.27
2023-01-19T16:36:28.448Z,14.73
2023-01-19T16:38:59.077Z,14.30
2023-01-19T16:41:26.834Z,14.80
2023-01-19T16:43:56.162Z,12.60
2023-01-19T16:46:25.921Z,13.38
2023-01-19T16:51:21.668Z,12.90
2023-01-19T16:53:49.628Z,13.05
2023-01-19T16:56:18.890Z,12.98
2023-01-19T16:58:46.622Z,11.73
2023-01-19T17:01:19.546Z,16.00
2023-01-19T17:03:47.738Z,13.13
2023-01-19T17:06:18.458Z,15.45
2023-01-19T17:08:46.441Z,12.25
2023-01-19T17:11:16.051Z,14.60
2023-01-19T17:16:12.090Z,17.13
2023-01-19T17:18:39.813Z,12.20
2023-01-19T17:21:09.323Z,12.73
2023-01-19T17:23:41.904Z,12.00
2023-01-19T17:26:09.534Z,12.40
2023-01-19T17:28:37.528Z,12.10
2023-01-19T17:31:07.485Z,15.98
2023-01-19T17:33:35.300Z,18.27
2023-01-19T17:36:03.570Z,16.75
2023-01-19T17:38:31.008Z,13.15
2023-01-19T17:40:58.634Z,11.52
2023-01-19T17:43:26.106Z,15.15
2023-01-19T17:45:53.604Z,11.48
2023-01-19T17:48:22.546Z,16.83
2023-01-19T17:50:50.008Z,13.38
2023-01-19T17:53:17.495Z,14.55
2023-01-19T17:55:44.955Z,13.40
2023-01-19T17:58:12.497Z,14.25
2023-01-19T18:00:40.003Z,14.55
2023-01-19T18:03:07.460Z,13.90
2023-01-19T18:05:36.878Z,14.27
2023-01-19T18:08:04.700Z,15.75
2023-01-19T18:10:32.149Z,14.43
2023-01-19T18:12:59.624Z,13.27
2023-01-19T18:15:27.099Z,13.13
2023-01-19T18:17:54.548Z,17.92
2023-01-19T18:20:22.043Z,17.02
2023-01-19T18:22:51.489Z,16.42
2023-01-19T18:25:18.943Z,13.32
2023-01-19T18:27:46.883Z,14.57
2023-01-19T18:30:15.579Z,16.85
2023-01-19T18:32:43.086Z,16.65
2023-01-19T18:35:10.646Z,17.23
2023-01-19T18:37:38.136Z,16.95
2023-01-19T18:40:08.383Z,17.40
2023-01-19T18:42:35.650Z,11.95
2023-01-19T18:45:03.458Z,14.52
2023-01-19T18:47:32.977Z,12.85
2023-01-19T18:50:00.432Z,13.77
2023-01-19T18:52:28.048Z,13.45
2023-01-19T18:54:55.481Z,12.65
2023-01-19T18:57:24.468Z,14.45
2023-01-19T18:59:52.012Z,13.38
2023-01-19T19:02:19.491Z,15.13
2023-01-19T19:04:46.959Z,14.65
2023-01-19T19:07:14.428Z,15.20
2023-01-19T19:09:42.385Z,14.93
2023-01-19T19:12:09.927Z,16.40
2023-01-19T19:14:39.004Z,15.30
2023-01-19T19:17:06.616Z,16.73
2023-01-19T19:19:34.207Z,14.52
2023-01-19T19:22:01.615Z,14.10
2023-01-19T19:24:29.064Z,13.43
2023-01-19T19:26:56.615Z,18.02
2023-01-19T19:29:24.108Z,12.52
2023-01-19T19:31:53.039Z,17.58
2023-01-19T19:34:20.707Z,12.75
2023-01-19T19:36:48.145Z,15.93
2023-01-19T19:39:15.591Z,16.35
2023-01-19T19:41:43.045Z,13.85
2023-01-19T19:44:11.502Z,14.93
2023-01-19T19:46:39.232Z,13.20
2023-01-19T19:49:08.247Z,17.27
2023-01-19T19:51:36.186Z,15.73
2023-01-19T19:54:03.799Z,14.23
2023-01-19T19:56:32.615Z,12.80
2023-01-19T19:59:00.322Z,13.17
2023-01-19T20:01:32.314Z,17.33
2023-01-19T20:04:08.177Z,18.48
2023-01-19T20:06:36.383Z,14.50
2023-01-19T20:09:04.370Z,12.45
2023-01-19T20:11:31.856Z,13.40
2023-01-19T20:13:59.502Z,14.05
2023-01-19T20:16:26.962Z,14.52
2023-01-19T20:18:54.531Z,15.95
2023-01-19T20:25:40.500Z,14.35
2023-01-19T20:29:03.982Z,15.95
2023-01-19T20:31:53.274Z,14.00
2023-01-19T20:34:23.306Z,14.05
2023-01-19T20:36:50.807Z,14.57
2023-01-19T20:39:19.061Z,12.48
2023-01-19T20:41:46.456Z,11.95
2023-01-19T20:44:16.696Z,15.93
2023-01-19T20:53:26.293Z,14.40
2023-01-19T20:55:53.881Z,14.90
2023-01-19T20:58:21.872Z,12.88
2023-01-19T21:00:49.697Z,11.77
2023-01-19T21:03:17.684Z,12.25
2023-01-19T21:05:48.205Z,12.77
2023-01-19T21:08:16.177Z,11.02
2023-01-19T21:10:43.992Z,15.00
2023-01-19T21:13:11.801Z,15.27
2023-01-19T21:15:39.209Z,14.15
2023-01-19T21:18:06.743Z,13.30
2023-01-19T21:20:34.209Z,12.40
2023-01-19T21:23:03.093Z,12.00
2023-01-19T21:25:30.504Z,13.68
2023-01-19T21:27:57.987Z,13.35
2023-01-19T21:30:25.401Z,14.95
2023-01-19T21:32:52.826Z,15.02
2023-01-19T21:35:20.286Z,15.70
2023-01-19T21:37:47.763Z,12.18
2023-01-19T21:40:17.362Z,12.13
2023-01-19T21:45:12.094Z,12.77
2023-01-19T21:47:40.410Z,12.30
2023-01-19T21:50:08.727Z,12.50
2023-01-19T21:52:36.154Z,12.75
2023-01-19T21:55:04.439Z,14.25
2023-01-19T21:57:33.303Z,14.25
2023-01-19T22:00:00.762Z,14.80
2023-01-19T22:02:38.290Z,13.75
2023-01-19T22:05:06.974Z,13.95
2023-01-19T22:07:34.425Z,14.32
2023-01-19T22:10:01.855Z,12.18
2023-01-19T22:12:29.343Z,13.35
2023-01-19T22:14:58.217Z,16.58
2023-01-19T22:17:25.780Z,15.65
2023-01-19T22:19:53.197Z,11.90
2023-01-19T22:22:20.814Z,11.65
2023-01-19T22:24:50.180Z,13.70
2023-01-19T22:27:17.787Z,13.32
2023-01-19T22:29:45.351Z,11.35
2023-01-19T22:32:14.255Z,13.75
2023-01-19T22:34:41.711Z,11.50
2023-01-19T22:37:09.328Z,11.40
2023-01-19T22:39:36.995Z,12.57
2023-01-19T22:42:04.411Z,11.48
2023-01-19T22:44:31.829Z,11.65
2023-01-19T22:46:59.238Z,12.07
2023-01-19T22:49:28.369Z,10.82
2023-01-19T22:51:55.819Z,10.95
2023-01-19T22:54:23.321Z,12.30
2023-01-19T22:56:50.812Z,11.65
2023-01-19T22:59:18.259Z,11.43
2023-01-19T23:01:45.852Z,10.80
2023-01-19T23:04:15.551Z,11.50
2023-01-19T23:09:14.333Z,12.55
2023-01-19T23:11:43.278Z,12.77
2023-01-19T23:14:14.598Z,11.20
2023-01-19T23:16:42.272Z,10.05
2023-01-19T23:19:12.233Z,12.70
2023-01-19T23:21:40.571Z,13.40
2023-01-19T23:24:10.306Z,12.15
2023-01-19T23:29:07.461Z,11.38
2023-01-19T23:31:36.998Z,11.40
2023-01-19T23:36:34.308Z,10.65
2023-01-19T23:39:04.755Z,10.48
2023-01-19T23:41:33.969Z,10.05
2023-01-19T23:44:01.772Z,10.90
2023-01-19T23:46:29.383Z,10.27
2023-01-19T23:48:56.927Z,9.90
2023-01-19T23:51:26.663Z,10.07
2023-01-19T23:53:54.616Z,7.45
2023-01-19T23:56:24.607Z,9.75
2023-01-19T23:58:55.696Z,9.65
